createdAt,value
2018-03-06T00:01:13.850Z,98.17
2018-03-06T00:03:41.439Z,98.07
2018-03-06T00:06:09.097Z,98.31
2018-03-06T00:08:36.703Z,98.23
2018-03-06T00:11:04.337Z,97.99
2018-03-06T00:13:31.994Z,97.93
2018-03-06T00:15:59.586Z,97.89
2018-03-06T00:18:27.178Z,98.10
2018-03-06T00:20:54.806Z,98.03
2018-03-06T00:23:22.401Z,97.85
2018-03-06T00:25:50.014Z,97.53
2018-03-06T00:28:17.650Z,97.30
2018-03-06T00:30:45.254Z,97.36
2018-03-06T00:33:12.827Z,97.51
2018-03-06T00:35:40.452Z,97.62
2018-03-06T00:38:08.055Z,97.43
2018-03-06T00:40:35.640Z,97.76
2018-03-06T00:43:03.435Z,97.77
2018-03-06T00:45:31.022Z,97.78
2018-03-06T00:47:58.636Z,98.20
2018-03-06T00:50:26.312Z,98.41
2018-03-06T00:52:53.874Z,98.86
2018-03-06T00:55:21.504Z,99.36
2018-03-06T00:57:49.131Z,99.58
2018-03-06T01:00:16.738Z,99.72
2018-03-06T01:02:44.335Z,99.53
2018-03-06T01:05:11.994Z,98.80
2018-03-06T01:07:39.583Z,98.56
2018-03-06T01:10:07.165Z,98.12
2018-03-06T01:12:34.802Z,97.69
2018-03-06T01:15:02.451Z,97.65
2018-03-06T01:17:30.065Z,97.76
2018-03-06T01:19:57.702Z,97.83
2018-03-06T01:22:25.291Z,98.09
2018-03-06T01:24:52.895Z,98.62
2018-03-06T01:27:20.557Z,99.25
2018-03-06T01:29:48.163Z,99.86
2018-03-06T01:32:15.734Z,99.87
2018-03-06T01:34:43.368Z,99.43
2018-03-06T01:37:11.000Z,99.88
2018-03-06T01:39:38.579Z,100.00
2018-03-06T01:42:06.217Z,100.00
2018-03-06T01:44:33.810Z,99.83
2018-03-06T01:47:01.400Z,100.00
2018-03-06T01:49:29.019Z,100.00
2018-03-06T01:51:58.363Z,100.00
2018-03-06T01:54:25.973Z,100.00
2018-03-06T01:56:53.658Z,100.00
2018-03-06T01:59:21.247Z,99.61
2018-03-06T02:01:48.844Z,99.66
2018-03-06T02:04:16.493Z,99.83
2018-03-06T02:06:44.082Z,99.75
2018-03-06T02:09:11.679Z,99.79
2018-03-06T02:11:39.318Z,99.65
2018-03-06T02:14:06.928Z,99.55
2018-03-06T02:16:34.522Z,99.74
2018-03-06T02:19:02.162Z,99.57
2018-03-06T02:21:29.766Z,99.64
2018-03-06T02:23:57.363Z,99.53
2018-03-06T02:26:25.030Z,99.23
2018-03-06T02:28:53.214Z,99.18
2018-03-06T02:31:20.807Z,98.84
2018-03-06T02:33:48.457Z,98.86
2018-03-06T02:36:16.124Z,98.88
2018-03-06T02:38:43.734Z,98.60
2018-03-06T02:41:11.361Z,98.58
2018-03-06T02:43:38.948Z,98.35
2018-03-06T02:46:12.264Z,98.22
2018-03-06T02:48:39.878Z,97.58
2018-03-06T02:51:07.499Z,97.63
2018-03-06T02:53:35.144Z,97.72
2018-03-06T02:56:02.730Z,97.29
2018-03-06T02:58:30.330Z,96.82
2018-03-06T03:00:57.972Z,96.10
2018-03-06T03:03:25.558Z,96.11
2018-03-06T03:05:53.213Z,95.86
2018-03-06T03:08:20.847Z,95.87
2018-03-06T03:10:48.452Z,95.74
2018-03-06T03:13:16.056Z,95.50
2018-03-06T03:15:43.688Z,95.28
2018-03-06T03:18:11.281Z,95.32
2018-03-06T03:20:38.881Z,95.14
2018-03-06T03:23:06.524Z,95.15
2018-03-06T03:25:34.141Z,95.37
2018-03-06T03:28:01.738Z,95.08
2018-03-06T03:30:29.366Z,95.07
2018-03-06T03:32:56.966Z,95.22
2018-03-06T03:35:24.558Z,95.15
2018-03-06T03:37:52.185Z,95.13
2018-03-06T03:40:19.811Z,95.34
2018-03-06T03:42:47.395Z,95.65
2018-03-06T03:45:15.025Z,95.57
2018-03-06T03:47:42.639Z,95.84
2018-03-06T03:50:10.243Z,95.91
2018-03-06T03:52:37.869Z,95.89
2018-03-06T03:55:05.468Z,95.30
2018-03-06T03:57:33.102Z,95.62
2018-03-06T04:00:00.723Z,96.02
2018-03-06T04:02:28.348Z,95.64
2018-03-06T04:04:55.944Z,95.83
2018-03-06T04:07:23.566Z,96.04
2018-03-06T04:09:51.151Z,96.37
2018-03-06T04:12:18.740Z,96.79
2018-03-06T04:14:46.386Z,96.85
2018-03-06T04:17:14.007Z,96.65
2018-03-06T04:19:41.648Z,96.52
2018-03-06T04:22:09.287Z,96.69
2018-03-06T04:24:36.886Z,96.67
2018-03-06T04:27:04.498Z,96.63
2018-03-06T04:29:32.162Z,96.55
2018-03-06T04:31:59.751Z,96.75
2018-03-06T04:34:27.331Z,96.81
2018-03-06T04:36:54.970Z,96.62
2018-03-06T04:39:22.575Z,96.29
2018-03-06T04:41:50.154Z,96.40
2018-03-06T04:44:17.784Z,96.40
2018-03-06T04:46:45.377Z,96.34
2018-03-06T04:49:13.010Z,96.14
2018-03-06T04:51:40.635Z,95.90
2018-03-06T04:54:08.233Z,95.82
2018-03-06T04:56:35.825Z,95.38
2018-03-06T04:59:03.492Z,95.66
2018-03-06T05:01:31.142Z,95.96
2018-03-06T05:03:58.691Z,96.25
2018-03-06T05:06:26.347Z,96.35
2018-03-06T05:08:53.941Z,96.31
2018-03-06T05:11:21.558Z,95.85
2018-03-06T05:13:49.207Z,94.90
2018-03-06T05:16:16.854Z,94.06
2018-03-06T05:18:44.446Z,93.77
2018-03-06T05:21:12.100Z,93.72
2018-03-06T05:23:39.700Z,93.50
2018-03-06T05:26:07.289Z,93.54
2018-03-06T05:28:34.926Z,93.89
2018-03-06T05:31:02.527Z,94.24
2018-03-06T05:33:30.132Z,94.39
2018-03-06T05:35:57.741Z,94.35
2018-03-06T05:38:25.336Z,93.93
2018-03-06T05:40:52.935Z,93.46
2018-03-06T05:43:20.604Z,93.90
2018-03-06T05:45:48.258Z,93.91
2018-03-06T05:48:15.845Z,94.09
2018-03-06T05:50:43.509Z,93.91
2018-03-06T05:53:11.098Z,94.61
2018-03-06T05:55:38.736Z,95.30
2018-03-06T05:58:06.343Z,95.35
2018-03-06T06:00:34.059Z,95.36
2018-03-06T06:03:01.718Z,94.97
2018-03-06T06:05:29.324Z,94.80
2018-03-06T06:07:56.923Z,94.17
2018-03-06T06:10:24.568Z,94.34
2018-03-06T06:12:52.167Z,94.29
2018-03-06T06:15:19.774Z,94.34
2018-03-06T06:17:47.383Z,94.23
2018-03-06T06:20:14.965Z,93.97
2018-03-06T06:22:42.541Z,93.89
2018-03-06T06:25:10.153Z,93.92
2018-03-06T06:27:37.992Z,93.29
2018-03-06T06:30:05.582Z,93.25
2018-03-06T06:32:33.192Z,92.98
2018-03-06T06:35:00.796Z,92.78
2018-03-06T06:37:28.372Z,92.29
2018-03-06T06:39:55.982Z,91.75
2018-03-06T06:42:23.563Z,92.63
2018-03-06T06:44:51.185Z,95.35
2018-03-06T06:47:18.791Z,91.10
2018-03-06T06:49:46.400Z,89.45
2018-03-06T06:52:13.971Z,89.24
2018-03-06T06:54:41.586Z,89.67
2018-03-06T06:57:09.158Z,88.61
2018-03-06T06:59:36.773Z,90.01
2018-03-06T07:02:04.476Z,86.93
2018-03-06T07:04:32.056Z,86.91
2018-03-06T07:06:59.635Z,86.62
2018-03-06T07:09:27.239Z,88.52
2018-03-06T07:11:54.842Z,88.29
2018-03-06T07:14:22.424Z,88.80
2018-03-06T07:16:50.036Z,89.39
2018-03-06T07:19:17.595Z,88.68
2018-03-06T07:21:45.193Z,89.27
2018-03-06T07:24:12.807Z,87.63
2018-03-06T07:26:40.488Z,86.87
2018-03-06T07:29:08.062Z,87.26
2018-03-06T07:31:35.666Z,87.43
2018-03-06T07:34:03.234Z,85.93
2018-03-06T07:36:30.888Z,87.32
2018-03-06T07:38:58.498Z,86.64
2018-03-06T07:41:26.067Z,86.50
2018-03-06T07:43:53.634Z,85.58
2018-03-06T07:46:21.261Z,84.95
2018-03-06T07:48:48.989Z,84.40
2018-03-06T07:51:16.569Z,86.09
2018-03-06T07:53:44.173Z,86.22
2018-03-06T07:56:11.756Z,86.98
2018-03-06T07:58:39.380Z,87.61
2018-03-06T08:01:06.997Z,88.21
2018-03-06T08:03:34.584Z,88.00
2018-03-06T08:06:02.154Z,87.30
2018-03-06T08:08:29.770Z,87.20
2018-03-06T08:10:57.334Z,86.52
2018-03-06T08:13:24.899Z,85.97
2018-03-06T08:15:52.501Z,85.81
2018-03-06T08:18:20.059Z,86.02
2018-03-06T08:20:47.626Z,86.68
2018-03-06T08:23:15.228Z,85.74
2018-03-06T08:25:42.796Z,84.59
2018-03-06T08:28:10.407Z,84.28
2018-03-06T08:30:38.019Z,83.65
2018-03-06T08:33:06.491Z,84.37
2018-03-06T08:35:34.064Z,84.15
2018-03-06T08:38:01.676Z,83.93
2018-03-06T08:40:29.243Z,83.58
2018-03-06T08:42:56.815Z,83.30
2018-03-06T08:45:24.431Z,81.93
2018-03-06T08:47:52.004Z,82.46
2018-03-06T08:50:19.584Z,82.35
2018-03-06T08:52:47.203Z,82.97
2018-03-06T08:55:14.775Z,82.80
2018-03-06T08:57:42.391Z,84.10
2018-03-06T09:00:09.997Z,83.53
2018-03-06T09:02:37.578Z,83.21
2018-03-06T09:05:05.153Z,83.04
2018-03-06T09:07:32.772Z,82.83
2018-03-06T09:10:00.339Z,85.02
2018-03-06T09:12:27.907Z,84.33
2018-03-06T09:14:55.528Z,82.93
2018-03-06T09:17:23.153Z,82.30
2018-03-06T09:19:50.697Z,81.20
2018-03-06T09:22:18.293Z,81.08
2018-03-06T09:24:45.859Z,80.72
2018-03-06T09:27:13.436Z,80.42
2018-03-06T09:29:41.051Z,79.47
2018-03-06T09:32:08.628Z,78.58
2018-03-06T09:34:36.197Z,76.51
2018-03-06T09:37:03.812Z,76.40
2018-03-06T09:39:31.382Z,73.78
2018-03-06T09:41:58.946Z,73.88
2018-03-06T09:44:26.565Z,75.12
2018-03-06T09:46:54.136Z,72.82
2018-03-06T09:49:21.709Z,72.18
2018-03-06T09:51:49.311Z,72.45
2018-03-06T09:54:16.883Z,71.63
2018-03-06T09:56:44.451Z,70.15
2018-03-06T09:59:12.060Z,71.04
2018-03-06T10:01:39.627Z,70.38
2018-03-06T10:04:07.201Z,67.25
2018-03-06T10:06:34.831Z,65.16
2018-03-06T10:09:02.416Z,64.87
2018-03-06T10:11:30.144Z,66.84
2018-03-06T10:13:57.746Z,70.13
2018-03-06T10:16:25.352Z,71.03
2018-03-06T10:18:52.908Z,69.70
2018-03-06T10:21:20.471Z,69.83
2018-03-06T10:23:48.089Z,70.03
2018-03-06T10:26:15.646Z,69.15
2018-03-06T10:28:43.211Z,64.23
2018-03-06T10:31:10.816Z,57.70
2018-03-06T10:33:38.455Z,55.27
2018-03-06T10:36:06.046Z,50.56
2018-03-06T10:38:33.653Z,51.99
2018-03-06T10:41:01.229Z,51.11
2018-03-06T10:43:28.808Z,52.41
2018-03-06T10:45:56.409Z,54.96
2018-03-06T10:48:23.974Z,55.62
2018-03-06T10:50:51.530Z,49.62
2018-03-06T10:53:19.147Z,46.25
2018-03-06T10:55:46.715Z,41.00
2018-03-06T10:58:14.285Z,35.94
2018-03-06T11:00:47.814Z,34.50
2018-03-06T11:03:29.844Z,35.09
2018-03-06T11:05:57.448Z,37.09
2018-03-06T11:08:25.020Z,37.22
2018-03-06T11:10:52.602Z,37.94
2018-03-06T11:13:20.308Z,38.97
2018-03-06T11:15:47.891Z,42.20
2018-03-06T11:18:15.474Z,45.02
2018-03-06T11:20:43.104Z,44.01
2018-03-06T11:23:10.681Z,43.70
2018-03-06T11:25:38.255Z,43.27
2018-03-06T11:28:05.870Z,41.84
2018-03-06T11:30:33.442Z,39.48
2018-03-06T11:33:01.020Z,39.68
2018-03-06T11:35:28.647Z,37.76
2018-03-06T11:37:56.203Z,35.82
2018-03-06T11:40:23.770Z,35.63
2018-03-06T11:42:51.377Z,34.88
2018-03-06T11:45:18.949Z,38.70
2018-03-06T11:47:46.524Z,38.85
2018-03-06T11:50:14.128Z,41.37
2018-03-06T11:52:41.710Z,41.85
2018-03-06T11:55:09.280Z,40.05
2018-03-06T11:57:37.465Z,41.86
2018-03-06T12:00:05.152Z,41.78
2018-03-06T12:02:32.724Z,42.16
2018-03-06T12:05:00.335Z,41.20
2018-03-06T12:07:27.915Z,41.21
2018-03-06T12:09:55.586Z,41.25
2018-03-06T12:12:23.218Z,43.93
2018-03-06T12:14:50.795Z,45.57
2018-03-06T12:17:18.531Z,49.20
2018-03-06T12:19:46.128Z,49.86
2018-03-06T12:22:13.747Z,50.11
2018-03-06T12:24:41.320Z,50.68
2018-03-06T12:27:08.909Z,51.67
2018-03-06T12:29:36.473Z,52.11
2018-03-06T12:32:04.031Z,52.10
2018-03-06T12:34:31.630Z,52.10
2018-03-06T12:36:59.188Z,52.84
2018-03-06T12:39:26.752Z,52.81
2018-03-06T12:41:54.362Z,52.19
2018-03-06T12:44:21.941Z,51.32
2018-03-06T12:46:49.531Z,46.31
2018-03-06T12:49:17.201Z,43.05
2018-03-06T12:51:44.774Z,45.71
2018-03-06T12:54:12.344Z,45.37
2018-03-06T12:56:40.102Z,46.56
2018-03-06T12:59:07.672Z,48.44
2018-03-06T13:01:35.306Z,47.27
2018-03-06T13:04:04.064Z,47.26
2018-03-06T13:06:31.634Z,48.29
2018-03-06T13:08:59.208Z,49.95
2018-03-06T13:11:26.998Z,50.10
2018-03-06T13:13:54.566Z,50.67
2018-03-06T13:16:22.130Z,48.84
2018-03-06T13:18:49.772Z,46.76
2018-03-06T13:21:18.054Z,46.19
2018-03-06T13:23:45.628Z,45.37
2018-03-06T13:26:13.249Z,44.05
2018-03-06T13:28:42.711Z,41.45
2018-03-06T13:31:10.299Z,40.36
2018-03-06T13:33:39.669Z,42.31
2018-03-06T13:36:08.138Z,45.21
2018-03-06T13:38:36.462Z,44.37
2018-03-06T13:41:04.186Z,44.19
2018-03-06T13:43:31.745Z,44.56
2018-03-06T13:45:59.309Z,46.58
2018-03-06T13:48:26.940Z,50.86
2018-03-06T13:50:54.525Z,51.51
2018-03-06T13:53:22.092Z,53.22
2018-03-06T13:55:49.709Z,54.76
2018-03-06T13:58:17.273Z,56.47
2018-03-06T14:00:44.875Z,57.39
2018-03-06T14:03:12.475Z,58.26
2018-03-06T14:05:40.052Z,57.61
2018-03-06T14:08:07.626Z,58.61
2018-03-06T14:10:35.236Z,59.79
2018-03-06T14:13:02.798Z,60.30
2018-03-06T14:15:30.428Z,60.20
2018-03-06T14:17:58.022Z,60.02
2018-03-06T14:20:25.594Z,59.66
2018-03-06T14:22:53.168Z,59.53
2018-03-06T14:25:20.760Z,59.34
2018-03-06T14:27:48.328Z,59.15
2018-03-06T14:30:15.892Z,60.30
2018-03-06T14:32:43.608Z,61.12
2018-03-06T14:35:11.180Z,62.11
2018-03-06T14:37:38.755Z,61.95
2018-03-06T14:40:06.373Z,63.14
2018-03-06T14:42:33.940Z,62.77
2018-03-06T14:45:01.512Z,62.69
2018-03-06T14:47:29.129Z,63.39
2018-03-06T14:49:56.706Z,64.61
2018-03-06T14:52:24.288Z,64.98
2018-03-06T14:54:52.088Z,65.32
2018-03-06T14:57:19.707Z,65.58
2018-03-06T14:59:47.305Z,66.26
2018-03-06T15:02:14.926Z,65.77
2018-03-06T15:04:42.500Z,65.67
2018-03-06T15:07:10.062Z,66.32
2018-03-06T15:09:37.677Z,67.79
2018-03-06T15:12:05.239Z,68.84
2018-03-06T15:14:32.826Z,69.74
2018-03-06T15:17:00.631Z,70.52
2018-03-06T15:19:28.192Z,71.57
2018-03-06T15:21:55.758Z,72.03
2018-03-06T15:24:23.346Z,72.88
2018-03-06T15:26:50.915Z,73.26
2018-03-06T15:29:18.470Z,74.87
2018-03-06T15:31:46.082Z,75.30
2018-03-06T15:34:13.688Z,75.01
2018-03-06T15:36:41.259Z,76.05
2018-03-06T15:39:08.947Z,76.96
2018-03-06T15:41:36.521Z,76.49
2018-03-06T15:44:04.084Z,77.72
2018-03-06T15:46:31.683Z,78.54
2018-03-06T15:48:59.258Z,79.09
2018-03-06T15:51:26.823Z,79.70
2018-03-06T15:53:54.420Z,80.15
2018-03-06T15:56:21.990Z,80.27
2018-03-06T15:58:49.572Z,80.75
2018-03-06T16:01:17.700Z,81.20
2018-03-06T16:03:45.263Z,81.90
2018-03-06T16:06:12.836Z,82.37
2018-03-06T16:08:40.434Z,82.76
2018-03-06T16:11:08.023Z,83.11
2018-03-06T16:13:35.590Z,83.85
2018-03-06T16:16:03.215Z,84.78
2018-03-06T16:18:30.776Z,84.34
2018-03-06T16:20:58.347Z,84.51
2018-03-06T16:23:25.944Z,85.73
2018-03-06T16:25:53.523Z,86.01
2018-03-06T16:28:21.095Z,86.28
2018-03-06T16:30:48.694Z,86.36
2018-03-06T16:33:16.254Z,86.54
2018-03-06T16:35:43.833Z,87.71
2018-03-06T16:38:11.458Z,88.38
2018-03-06T16:40:39.010Z,88.81
2018-03-06T16:43:06.598Z,88.93
2018-03-06T16:45:34.204Z,88.81
2018-03-06T16:48:01.807Z,88.74
2018-03-06T16:50:29.367Z,89.04
2018-03-06T16:52:56.993Z,89.12
2018-03-06T16:55:24.865Z,89.32
2018-03-06T16:57:52.428Z,89.50
2018-03-06T17:00:20.047Z,89.80
2018-03-06T17:02:47.612Z,90.23
2018-03-06T17:05:15.169Z,90.62
2018-03-06T17:07:42.775Z,91.30
2018-03-06T17:10:10.350Z,91.45
2018-03-06T17:12:37.908Z,91.17
2018-03-06T17:15:05.559Z,90.98
2018-03-06T17:17:33.114Z,90.99
2018-03-06T17:20:00.701Z,91.43
2018-03-06T17:22:28.254Z,90.82
2018-03-06T17:24:55.813Z,91.80
2018-03-06T17:27:23.427Z,92.41
2018-03-06T17:29:51.029Z,92.18
2018-03-06T17:32:18.599Z,92.80
2018-03-06T17:34:46.217Z,90.98
2018-03-06T17:37:13.781Z,91.84
2018-03-06T17:39:41.363Z,90.85
2018-03-06T17:42:09.158Z,90.51
2018-03-06T17:44:36.733Z,88.98
2018-03-06T17:47:04.310Z,89.16
2018-03-06T17:49:31.911Z,90.47
2018-03-06T17:51:59.514Z,89.14
2018-03-06T17:54:27.076Z,87.67
2018-03-06T17:56:54.675Z,87.64
2018-03-06T17:59:22.250Z,87.80
2018-03-06T18:01:49.812Z,88.04
2018-03-06T18:04:17.399Z,87.81
2018-03-06T18:06:44.966Z,87.65
2018-03-06T18:09:12.532Z,88.22
2018-03-06T18:11:40.138Z,87.84
2018-03-06T18:14:07.711Z,87.68
2018-03-06T18:16:35.305Z,87.83
2018-03-06T18:19:02.976Z,88.37
2018-03-06T18:21:30.588Z,88.57
2018-03-06T18:23:58.207Z,88.81
2018-03-06T18:26:26.134Z,88.65
2018-03-06T18:28:54.002Z,88.49
2018-03-06T18:31:21.743Z,88.25
2018-03-06T18:33:49.344Z,88.37
2018-03-06T18:36:16.904Z,87.93
2018-03-06T18:38:44.465Z,88.39
2018-03-06T18:41:12.093Z,88.41
2018-03-06T18:43:39.650Z,87.74
2018-03-06T18:46:07.208Z,88.14
2018-03-06T18:48:34.807Z,88.51
2018-03-06T18:51:09.224Z,88.30
2018-03-06T18:53:36.835Z,88.87
2018-03-06T18:56:04.418Z,89.21
2018-03-06T18:58:31.968Z,89.70
2018-03-06T19:04:28.173Z,90.02
2018-03-06T19:07:14.501Z,89.83
2018-03-06T19:09:42.076Z,89.82
2018-03-06T19:12:09.670Z,89.54
2018-03-06T19:14:37.342Z,89.47
2018-03-06T19:17:04.987Z,89.28
2018-03-06T19:19:32.580Z,89.26
2018-03-06T19:22:00.471Z,88.35
2018-03-06T19:24:28.198Z,88.45
2018-03-06T19:26:55.844Z,87.67
2018-03-06T19:29:23.791Z,87.31
2018-03-06T19:31:51.800Z,87.65
2018-03-06T19:34:20.490Z,87.65
2018-03-06T19:36:48.294Z,87.81
2018-03-06T19:39:16.011Z,87.73
2018-03-06T19:41:44.784Z,87.20
2018-03-06T19:44:12.717Z,86.94
2018-03-06T19:46:40.976Z,86.80
2018-03-06T19:49:09.017Z,87.38
2018-03-06T19:51:36.957Z,87.42
2018-03-06T19:54:05.048Z,87.59
2018-03-06T19:56:32.778Z,87.78
2018-03-06T19:59:00.902Z,87.70
2018-03-06T20:01:29.131Z,88.15
2018-03-06T20:03:57.670Z,88.76
2018-03-06T20:08:58.559Z,89.43
2018-03-06T20:11:26.617Z,89.84
2018-03-06T20:13:54.857Z,89.84
2018-03-06T20:16:22.660Z,89.71
2018-03-06T20:18:55.827Z,90.00
2018-03-06T20:21:23.379Z,89.72
2018-03-06T20:23:52.346Z,89.81
2018-03-06T20:26:19.967Z,89.68
2018-03-06T20:28:47.541Z,89.59
2018-03-06T20:31:20.806Z,89.82
2018-03-06T20:33:48.382Z,89.54
2018-03-06T20:36:15.951Z,89.18
2018-03-06T20:38:49.154Z,88.99
2018-03-06T20:41:16.719Z,88.95
2018-03-06T20:43:44.321Z,89.60
2018-03-06T20:46:17.451Z,89.04
2018-03-06T20:48:45.033Z,88.93
2018-03-06T20:51:12.598Z,88.88
2018-03-06T20:56:45.367Z,88.94
2018-03-06T20:59:12.964Z,89.37
2018-03-06T21:01:40.538Z,89.40
2018-03-06T21:04:08.115Z,89.47
2018-03-06T21:06:35.712Z,89.34
2018-03-06T21:09:03.359Z,88.95
2018-03-06T21:11:30.922Z,88.79
2018-03-06T21:13:58.528Z,89.44
2018-03-06T21:16:26.087Z,89.68
2018-03-06T21:18:53.648Z,90.02
2018-03-06T21:21:21.251Z,89.82
2018-03-06T21:23:48.830Z,89.11
2018-03-06T21:26:16.431Z,88.58
2018-03-06T21:28:44.092Z,87.85
2018-03-06T21:31:11.700Z,89.04
2018-03-06T21:33:39.275Z,89.47
2018-03-06T21:36:06.888Z,89.29
2018-03-06T21:38:34.534Z,89.75
2018-03-06T21:41:02.156Z,90.74
2018-03-06T21:43:29.776Z,90.58
2018-03-06T21:45:57.343Z,90.45
2018-03-06T21:48:24.917Z,90.82
2018-03-06T21:50:52.520Z,91.71
2018-03-06T21:53:20.092Z,92.22
2018-03-06T21:55:47.672Z,92.46
2018-03-06T21:58:15.350Z,93.08
2018-03-06T22:00:43.052Z,93.34
2018-03-06T22:03:10.768Z,93.34
2018-03-06T22:05:38.376Z,93.48
2018-03-06T22:08:05.951Z,93.22
2018-03-06T22:10:33.526Z,93.07
2018-03-06T22:13:01.119Z,93.30
2018-03-06T22:15:28.680Z,93.47
2018-03-06T22:17:56.232Z,93.29
2018-03-06T22:20:23.911Z,93.49
2018-03-06T22:22:51.478Z,93.79
2018-03-06T22:25:19.046Z,94.00
2018-03-06T22:27:46.736Z,94.71
2018-03-06T22:30:14.306Z,94.83
2018-03-06T22:32:41.867Z,94.92
2018-03-06T22:35:09.474Z,95.73
2018-03-06T22:37:37.033Z,95.24
2018-03-06T22:40:04.595Z,95.54
2018-03-06T22:42:32.202Z,95.55
2018-03-06T22:44:59.755Z,95.55
2018-03-06T22:47:27.370Z,95.55
2018-03-06T22:49:54.989Z,96.07
2018-03-06T22:52:22.615Z,96.26
2018-03-06T22:54:50.192Z,96.61
2018-03-06T22:57:17.799Z,96.37
2018-03-06T22:59:45.366Z,96.07
2018-03-06T23:02:13.042Z,96.70
2018-03-06T23:04:40.708Z,97.07
2018-03-06T23:07:08.274Z,98.85
2018-03-06T23:09:35.836Z,97.68
2018-03-06T23:12:03.628Z,97.67
2018-03-06T23:14:31.194Z,100.00
2018-03-06T23:16:58.775Z,100.00
2018-03-06T23:19:26.400Z,96.95
2018-03-06T23:21:54.074Z,97.50
2018-03-06T23:24:21.640Z,100.00
2018-03-06T23:26:49.260Z,97.43
2018-03-06T23:29:16.822Z,100.00
2018-03-06T23:31:44.382Z,97.02
2018-03-06T23:34:11.987Z,93.17
2018-03-06T23:36:39.546Z,100.00
2018-03-06T23:39:07.105Z,96.35
2018-03-06T23:41:34.696Z,89.14
2018-03-06T23:44:02.275Z,95.71
2018-03-06T23:46:29.837Z,91.86
2018-03-06T23:48:57.436Z,94.71
2018-03-06T23:51:25.007Z,89.82
2018-03-06T23:53:52.587Z,88.63
2018-03-06T23:56:20.244Z,82.88
2018-03-06T23:58:47.782Z,80.18
